createdAt,value
2019-04-05T00:04:20.576Z,76.55
2019-04-05T00:09:42.127Z,76.03
2019-04-05T00:15:15.206Z,76.17
2019-04-05T00:20:29.915Z,76.04
2019-04-05T00:25:52.858Z,76.28
2019-04-05T00:31:15.190Z,76.34
2019-04-05T00:36:36.926Z,76.54
2019-04-05T00:41:58.958Z,76.91
2019-04-05T00:47:21.966Z,76.89
2019-04-05T00:52:44.488Z,77.09
2019-04-05T00:58:06.809Z,77.40
2019-04-05T01:03:29.857Z,77.84
2019-04-05T01:08:51.430Z,78.16
2019-04-05T01:14:13.271Z,77.67
2019-04-05T01:19:37.619Z,77.78
2019-04-05T01:25:00.809Z,77.53
2019-04-05T01:30:25.649Z,77.88
2019-04-05T01:35:48.913Z,78.24
2019-04-05T01:41:13.775Z,78.66
2019-04-05T01:46:36.648Z,78.34
2019-04-05T01:51:58.932Z,78.13
2019-04-05T01:57:20.222Z,77.71
2019-04-05T02:02:44.234Z,77.94
2019-04-05T02:08:06.075Z,78.42
2019-04-05T02:13:30.276Z,78.75
2019-04-05T02:18:57.240Z,79.03
2019-04-05T02:24:19.259Z,78.85
2019-04-05T02:29:41.716Z,79.36
2019-04-05T02:35:04.709Z,80.13
2019-04-05T02:40:27.523Z,80.06
2019-04-05T02:45:51.134Z,79.88
2019-04-05T02:51:16.967Z,79.93
2019-04-05T02:56:42.024Z,79.59
2019-04-05T03:02:05.631Z,79.59
2019-04-05T03:07:29.311Z,79.88
2019-04-05T03:12:51.355Z,80.10
2019-04-05T03:18:15.306Z,79.16
2019-04-05T03:23:41.267Z,79.57
2019-04-05T03:29:08.466Z,79.85
2019-04-05T03:34:31.759Z,79.92
2019-04-05T03:39:56.681Z,79.79
2019-04-05T03:45:18.659Z,79.73
2019-04-05T03:50:45.340Z,79.74
2019-04-05T03:56:08.223Z,80.04
2019-04-05T04:01:34.440Z,80.09
2019-04-05T04:06:57.670Z,80.47
2019-04-05T04:12:21.279Z,80.72
2019-04-05T04:17:43.366Z,80.57
2019-04-05T04:23:10.105Z,80.56
2019-04-05T04:28:36.252Z,80.22
2019-04-05T04:34:02.208Z,79.87
2019-04-05T04:39:24.341Z,79.28
2019-04-05T04:44:47.098Z,78.93
2019-04-05T04:50:10.497Z,79.24
2019-04-05T04:55:32.201Z,78.71
2019-04-05T05:00:56.371Z,77.85
2019-04-05T05:06:17.951Z,77.30
2019-04-05T05:11:40.514Z,76.94
2019-04-05T05:17:03.356Z,76.53
2019-04-05T05:22:24.925Z,75.73
2019-04-05T05:27:47.044Z,75.88
2019-04-05T05:33:21.550Z,75.40
2019-04-05T05:38:44.288Z,74.81
2019-04-05T05:44:05.768Z,74.16
2019-04-05T05:49:27.504Z,73.62
2019-04-05T05:54:49.109Z,72.96
2019-04-05T06:00:14.246Z,72.33
2019-04-05T06:05:35.669Z,71.38
2019-04-05T06:10:57.876Z,71.08
2019-04-05T06:16:46.694Z,70.13
2019-04-05T06:22:08.347Z,70.45
2019-04-05T06:27:41.210Z,70.04
2019-04-05T06:33:04.644Z,69.66
2019-04-05T06:38:28.788Z,69.61
2019-04-05T06:43:53.250Z,68.37
2019-04-05T06:50:02.447Z,68.32
2019-04-05T06:55:26.760Z,68.01
2019-04-05T07:00:57.367Z,67.06
2019-04-05T07:06:30.571Z,65.41
2019-04-05T07:11:53.139Z,64.73
2019-04-05T07:17:16.118Z,64.47
2019-04-05T07:22:42.702Z,63.13
2019-04-05T07:28:04.708Z,63.16
2019-04-05T07:33:27.303Z,62.84
2019-04-05T07:38:51.221Z,62.15
2019-04-05T07:44:25.553Z,61.57
2019-04-05T07:49:54.321Z,60.55
2019-04-05T07:55:30.021Z,59.69
2019-04-05T08:00:56.123Z,59.65
2019-04-05T08:06:22.899Z,58.64
2019-04-05T08:11:46.399Z,57.71
2019-04-05T08:17:09.314Z,57.40
2019-04-05T08:22:32.614Z,55.79
2019-04-05T08:27:54.647Z,54.41
2019-04-05T08:33:16.269Z,54.68
2019-04-05T08:38:39.819Z,55.60
2019-04-05T08:44:01.602Z,54.25
2019-04-05T08:49:25.522Z,54.22
2019-04-05T08:54:50.417Z,54.30
2019-04-05T09:00:31.981Z,53.75
2019-04-05T09:05:57.847Z,53.58
2019-04-05T09:11:22.077Z,51.62
2019-04-05T09:16:49.330Z,51.61
2019-04-05T09:22:11.884Z,50.72
2019-04-05T09:27:34.989Z,50.57
2019-04-05T09:33:03.715Z,50.12
2019-04-05T09:38:31.039Z,49.46
2019-04-05T09:43:55.029Z,48.02
2019-04-05T09:49:21.296Z,48.89
2019-04-05T09:54:45.634Z,49.04
2019-04-05T10:00:14.523Z,48.42
2019-04-05T10:05:38.340Z,48.39
2019-04-05T10:10:59.908Z,49.46
2019-04-05T10:16:23.047Z,48.59
2019-04-05T10:21:44.654Z,48.75
2019-04-05T10:27:06.305Z,47.97
2019-04-05T10:32:28.776Z,47.32
2019-04-05T10:37:50.071Z,46.61
2019-04-05T10:43:13.032Z,46.57
2019-04-05T10:48:38.917Z,45.99
2019-04-05T10:54:00.056Z,46.96
2019-04-05T10:59:23.854Z,47.17
2019-04-05T11:04:46.189Z,47.13
2019-04-05T11:10:17.120Z,45.32
2019-04-05T11:15:40.182Z,44.35
2019-04-05T11:21:02.837Z,45.74
2019-04-05T11:26:25.177Z,45.44
2019-04-05T11:32:25.379Z,44.92
2019-04-05T11:37:52.937Z,45.85
2019-04-05T11:43:19.234Z,46.06
2019-04-05T11:48:45.371Z,46.61
2019-04-05T11:54:08.365Z,45.41
2019-04-05T11:59:30.857Z,45.57
2019-04-05T12:04:56.430Z,45.04
2019-04-05T12:10:22.998Z,44.42
2019-04-05T12:15:49.962Z,43.47
2019-04-05T12:21:12.957Z,42.59
2019-04-05T12:26:38.524Z,43.51
2019-04-05T12:32:05.707Z,42.55
2019-04-05T12:37:29.549Z,43.44
2019-04-05T12:43:02.575Z,43.18
2019-04-05T12:48:26.784Z,42.14
2019-04-05T12:53:56.529Z,42.40
2019-04-05T12:59:17.923Z,41.59
2019-04-05T13:04:45.061Z,40.84
2019-04-05T13:10:08.005Z,39.70
2019-04-05T13:15:31.442Z,40.80
2019-04-05T13:20:54.207Z,39.69
2019-04-05T13:26:15.867Z,37.51
2019-04-05T13:31:40.271Z,36.90
2019-04-05T13:37:02.004Z,36.61
2019-04-05T13:42:23.401Z,36.90
2019-04-05T13:47:45.716Z,37.91
2019-04-05T13:53:11.165Z,40.44
2019-04-05T13:58:33.969Z,42.28
2019-04-05T14:03:56.260Z,43.27
2019-04-05T14:09:18.158Z,43.27
2019-04-05T14:14:41.551Z,43.75
2019-04-05T14:20:05.731Z,44.41
2019-04-05T14:25:30.140Z,44.57
2019-04-05T14:30:53.724Z,45.93
2019-04-05T14:36:15.342Z,46.68
2019-04-05T14:41:37.061Z,46.38
2019-04-05T14:46:58.773Z,47.22
2019-04-05T14:52:21.012Z,47.36
2019-04-05T14:57:42.450Z,47.28
2019-04-05T15:03:03.946Z,47.94
2019-04-05T15:08:26.090Z,48.52
2019-04-05T15:13:47.394Z,49.32
2019-04-05T15:19:09.354Z,48.88
2019-04-05T15:24:31.113Z,48.40
2019-04-05T15:29:55.352Z,48.05
2019-04-05T15:35:38.873Z,47.83
2019-04-05T15:41:00.548Z,49.15
2019-04-05T15:46:22.423Z,49.58
2019-04-05T15:51:46.389Z,52.77
2019-04-05T15:57:07.624Z,54.61
2019-04-05T16:02:33.011Z,55.58
2019-04-05T16:07:54.034Z,56.55
2019-04-05T16:13:16.316Z,57.66
2019-04-05T16:18:40.028Z,59.16
2019-04-05T16:24:02.226Z,60.09
2019-04-05T16:29:31.175Z,60.79
2019-04-05T16:34:53.481Z,60.81
2019-04-05T16:40:16.610Z,61.55
2019-04-05T16:45:38.993Z,62.31
2019-04-05T16:51:01.266Z,63.05
2019-04-05T16:56:24.191Z,63.93
2019-04-05T17:01:47.337Z,64.47
2019-04-05T17:07:10.097Z,64.78
2019-04-05T17:12:34.617Z,65.10
2019-04-05T17:18:00.630Z,65.11
2019-04-05T17:23:22.797Z,65.04
2019-04-05T17:28:45.034Z,65.19
2019-04-05T17:34:08.754Z,65.54
2019-04-05T17:39:30.861Z,65.60
2019-04-05T17:44:56.940Z,65.67
2019-04-05T17:50:30.769Z,65.69
2019-04-05T17:55:52.853Z,65.79
2019-04-05T18:01:22.469Z,66.03
2019-04-05T18:06:46.192Z,67.16
2019-04-05T18:12:07.939Z,67.56
2019-04-05T18:17:29.869Z,67.83
2019-04-05T18:22:51.689Z,67.61
2019-04-05T18:28:17.105Z,67.96
2019-04-05T18:33:41.132Z,68.22
2019-04-05T18:39:05.796Z,68.55
2019-04-05T18:44:27.382Z,68.54
2019-04-05T18:50:02.486Z,68.85
2019-04-05T18:55:35.570Z,68.91
2019-04-05T19:00:58.013Z,68.94
2019-04-05T19:06:20.793Z,68.37
2019-04-05T19:11:44.433Z,68.73
2019-04-05T19:17:08.244Z,69.06
2019-04-05T19:22:30.527Z,69.80
2019-04-05T19:27:53.406Z,70.67
2019-04-05T19:49:38.986Z,71.51
2019-04-05T19:55:03.875Z,71.19
2019-04-05T20:00:28.039Z,70.98
2019-04-05T20:05:54.997Z,71.29
2019-04-05T20:11:18.023Z,71.54
2019-04-05T20:16:40.854Z,71.28
2019-04-05T20:22:09.117Z,72.09
2019-04-05T20:27:31.689Z,72.33
2019-04-05T20:32:54.663Z,72.09
2019-04-05T20:38:17.004Z,71.97
2019-04-05T20:43:42.795Z,72.07
2019-04-05T20:49:06.128Z,72.15
2019-04-05T20:54:27.846Z,72.08
2019-04-05T20:59:50.327Z,72.10
2019-04-05T21:05:12.230Z,71.96
2019-04-05T21:10:34.576Z,71.28
2019-04-05T21:15:57.023Z,71.33
2019-04-05T21:21:19.882Z,71.86
2019-04-05T21:26:41.484Z,72.22
2019-04-05T21:32:03.645Z,72.42
2019-04-05T21:37:26.166Z,73.37
2019-04-05T21:42:49.102Z,73.81
2019-04-05T21:48:11.107Z,73.30
2019-04-05T21:53:32.537Z,73.02
2019-04-05T21:58:54.424Z,73.19
2019-04-05T22:04:15.733Z,73.59
2019-04-05T22:09:39.513Z,73.71
2019-04-05T22:15:01.362Z,73.39
2019-04-05T22:20:25.074Z,73.33
2019-04-05T22:25:47.309Z,73.63
2019-04-05T22:31:08.900Z,73.28
2019-04-05T22:36:30.468Z,73.39
2019-04-05T22:41:52.749Z,73.75
2019-04-05T22:47:14.273Z,74.12
2019-04-05T22:52:35.891Z,74.13
2019-04-05T22:57:58.704Z,74.86
2019-04-05T23:03:20.626Z,74.76
2019-04-05T23:08:43.343Z,75.25
2019-04-05T23:14:04.875Z,74.90
2019-04-05T23:19:26.826Z,75.31
2019-04-05T23:24:49.987Z,76.06
2019-04-05T23:30:11.498Z,76.13
2019-04-05T23:35:33.339Z,76.17
2019-04-05T23:40:55.347Z,76.17
2019-04-05T23:46:17.170Z,76.54
2019-04-05T23:51:39.318Z,76.60
2019-04-05T23:57:02.473Z,77.00
